sensor_id;sensor_type;location;lat;lon;timestamp;temperature;humidity
7738;DHT22;29398;45.328;5.558;2024-03-22T00:00:01;14.90;82.90
7738;DHT22;29398;45.328;5.558;2024-03-22T00:01:13;14.90;83.20
7738;DHT22;29398;45.328;5.558;2024-03-22T00:02:14;14.90;83.00
7738;DHT22;29398;45.328;5.558;2024-03-22T00:03:17;14.90;82.90
7738;DHT22;29398;45.328;5.558;2024-03-22T00:04:19;14.90;82.70
7738;DHT22;29398;45.328;5.558;2024-03-22T00:05:20;14.50;82.10
7738;DHT22;29398;45.328;5.558;2024-03-22T00:06:22;14.90;82.40
7738;DHT22;29398;45.328;5.558;2024-03-22T00:07:23;15.00;82.70
7738;DHT22;29398;45.328;5.558;2024-03-22T00:08:25;14.90;82.90
7738;DHT22;29398;45.328;5.558;2024-03-22T00:09:26;14.90;82.80
7738;DHT22;29398;45.328;5.558;2024-03-22T00:10:28;14.90;82.60
7738;DHT22;29398;45.328;5.558;2024-03-22T00:11:29;14.90;82.80
7738;DHT22;29398;45.328;5.558;2024-03-22T00:12:30;14.80;82.50
7738;DHT22;29398;45.328;5.558;2024-03-22T00:13:32;14.70;82.90
7738;DHT22;29398;45.328;5.558;2024-03-22T00:14:33;14.70;83.20
7738;DHT22;29398;45.328;5.558;2024-03-22T00:15:34;14.70;83.60
7738;DHT22;29398;45.328;5.558;2024-03-22T00:16:35;14.70;83.90
7738;DHT22;29398;45.328;5.558;2024-03-22T00:17:38;14.70;83.50
7738;DHT22;29398;45.328;5.558;2024-03-22T00:18:40;14.70;83.70
7738;DHT22;29398;45.328;5.558;2024-03-22T00:19:41;14.70;83.60
7738;DHT22;29398;45.328;5.558;2024-03-22T00:20:42;14.70;83.80
7738;DHT22;29398;45.328;5.558;2024-03-22T00:21:44;14.70;83.60
7738;DHT22;29398;45.328;5.558;2024-03-22T00:22:45;14.60;82.90
7738;DHT22;29398;45.328;5.558;2024-03-22T00:23:46;14.70;83.80
7738;DHT22;29398;45.328;5.558;2024-03-22T00:24:47;14.50;83.60
7738;DHT22;29398;45.328;5.558;2024-03-22T00:25:50;14.40;83.90
7738;DHT22;29398;45.328;5.558;2024-03-22T00:27:52;14.40;83.80
7738;DHT22;29398;45.328;5.558;2024-03-22T00:28:53;14.40;85.10
7738;DHT22;29398;45.328;5.558;2024-03-22T00:29:55;14.40;84.80
7738;DHT22;29398;45.328;5.558;2024-03-22T00:30:56;14.40;84.00
7738;DHT22;29398;45.328;5.558;2024-03-22T00:31:57;14.40;84.50
7738;DHT22;29398;45.328;5.558;2024-03-22T00:33:00;14.40;85.00
7738;DHT22;29398;45.328;5.558;2024-03-22T00:34:02;14.30;84.30
7738;DHT22;29398;45.328;5.558;2024-03-22T00:35:04;14.30;84.80
7738;DHT22;29398;45.328;5.558;2024-03-22T00:36:07;14.30;84.00
7738;DHT22;29398;45.328;5.558;2024-03-22T00:37:08;14.30;84.40
7738;DHT22;29398;45.328;5.558;2024-03-22T00:38:09;14.30;84.40
7738;DHT22;29398;45.328;5.558;2024-03-22T00:39:10;14.30;84.60
7738;DHT22;29398;45.328;5.558;2024-03-22T00:40:13;14.40;84.50
7738;DHT22;29398;45.328;5.558;2024-03-22T00:41:14;14.30;84.10
7738;DHT22;29398;45.328;5.558;2024-03-22T00:42:15;14.30;84.40
7738;DHT22;29398;45.328;5.558;2024-03-22T00:43:17;14.40;84.50
7738;DHT22;29398;45.328;5.558;2024-03-22T00:44:19;14.40;84.60
7738;DHT22;29398;45.328;5.558;2024-03-22T00:45:20;14.40;85.00
7738;DHT22;29398;45.328;5.558;2024-03-22T00:46:21;14.40;84.90
7738;DHT22;29398;45.328;5.558;2024-03-22T00:47:22;14.40;84.70
7738;DHT22;29398;45.328;5.558;2024-03-22T00:48:24;14.40;85.00
7738;DHT22;29398;45.328;5.558;2024-03-22T00:49:26;14.40;85.00
7738;DHT22;29398;45.328;5.558;2024-03-22T00:50:28;14.40;84.90
7738;DHT22;29398;45.328;5.558;2024-03-22T00:51:29;14.50;84.90
7738;DHT22;29398;45.328;5.558;2024-03-22T00:52:31;14.50;85.00
7738;DHT22;29398;45.328;5.558;2024-03-22T00:53:32;14.50;84.80
7738;DHT22;29398;45.328;5.558;2024-03-22T00:54:33;14.40;85.10
7738;DHT22;29398;45.328;5.558;2024-03-22T00:55:35;14.40;84.90
7738;DHT22;29398;45.328;5.558;2024-03-22T00:56:36;14.30;84.90
7738;DHT22;29398;45.328;5.558;2024-03-22T00:57:37;14.20;85.00
7738;DHT22;29398;45.328;5.558;2024-03-22T00:58:39;14.20;85.50
7738;DHT22;29398;45.328;5.558;2024-03-22T00:59:40;14.20;85.20
7738;DHT22;29398;45.328;5.558;2024-03-22T01:00:41;14.20;85.30
7738;DHT22;29398;45.328;5.558;2024-03-22T01:01:42;14.20;85.30
7738;DHT22;29398;45.328;5.558;2024-03-22T01:02:44;14.20;85.80
7738;DHT22;29398;45.328;5.558;2024-03-22T01:03:45;14.20;85.30
7738;DHT22;29398;45.328;5.558;2024-03-22T01:04:48;14.20;85.30
7738;DHT22;29398;45.328;5.558;2024-03-22T01:05:49;14.20;85.30
7738;DHT22;29398;45.328;5.558;2024-03-22T01:06:51;14.20;85.40
7738;DHT22;29398;45.328;5.558;2024-03-22T01:07:52;14.30;85.30
7738;DHT22;29398;45.328;5.558;2024-03-22T01:08:53;14.30;85.10
7738;DHT22;29398;45.328;5.558;2024-03-22T01:09:54;14.30;85.10
7738;DHT22;29398;45.328;5.558;2024-03-22T01:10:56;14.30;85.20
7738;DHT22;29398;45.328;5.558;2024-03-22T01:11:58;14.30;85.40
7738;DHT22;29398;45.328;5.558;2024-03-22T01:12:59;14.40;85.50
7738;DHT22;29398;45.328;5.558;2024-03-22T01:14:01;14.40;85.90
7738;DHT22;29398;45.328;5.558;2024-03-22T01:15:04;14.40;85.60
7738;DHT22;29398;45.328;5.558;2024-03-22T01:16:05;14.40;85.60
7738;DHT22;29398;45.328;5.558;2024-03-22T01:17:09;14.40;85.40
7738;DHT22;29398;45.328;5.558;2024-03-22T01:18:10;14.40;85.70
7738;DHT22;29398;45.328;5.558;2024-03-22T01:19:12;14.40;86.70
7738;DHT22;29398;45.328;5.558;2024-03-22T01:20:15;14.40;85.40
7738;DHT22;29398;45.328;5.558;2024-03-22T01:21:16;14.40;86.00
7738;DHT22;29398;45.328;5.558;2024-03-22T01:22:17;14.40;86.80
7738;DHT22;29398;45.328;5.558;2024-03-22T01:23:19;14.40;86.20
7738;DHT22;29398;45.328;5.558;2024-03-22T01:24:20;14.40;86.10
7738;DHT22;29398;45.328;5.558;2024-03-22T01:25:22;14.40;86.10
7738;DHT22;29398;45.328;5.558;2024-03-22T01:26:23;14.40;86.60
7738;DHT22;29398;45.328;5.558;2024-03-22T01:27:25;14.40;86.20
7738;DHT22;29398;45.328;5.558;2024-03-22T01:28:26;14.50;86.20
7738;DHT22;29398;45.328;5.558;2024-03-22T01:29:28;14.50;86.20
7738;DHT22;29398;45.328;5.558;2024-03-22T01:30:32;14.50;86.10
7738;DHT22;29398;45.328;5.558;2024-03-22T01:31:34;14.50;86.30
7738;DHT22;29398;45.328;5.558;2024-03-22T01:32:36;14.50;86.40
7738;DHT22;29398;45.328;5.558;2024-03-22T01:33:38;14.60;86.30
7738;DHT22;29398;45.328;5.558;2024-03-22T01:34:39;14.60;85.90
7738;DHT22;29398;45.328;5.558;2024-03-22T01:35:41;14.60;85.40
7738;DHT22;29398;45.328;5.558;2024-03-22T01:36:42;14.60;85.60
7738;DHT22;29398;45.328;5.558;2024-03-22T01:37:44;14.60;85.80
7738;DHT22;29398;45.328;5.558;2024-03-22T01:38:46;14.60;86.20
7738;DHT22;29398;45.328;5.558;2024-03-22T01:39:47;14.50;85.70
7738;DHT22;29398;45.328;5.558;2024-03-22T01:40:48;14.50;86.00
7738;DHT22;29398;45.328;5.558;2024-03-22T01:41:50;14.40;86.20
7738;DHT22;29398;45.328;5.558;2024-03-22T01:42:53;14.40;86.50
7738;DHT22;29398;45.328;5.558;2024-03-22T01:43:54;14.40;86.50
7738;DHT22;29398;45.328;5.558;2024-03-22T01:44:55;14.40;87.30
7738;DHT22;29398;45.328;5.558;2024-03-22T01:45:56;14.30;86.80
7738;DHT22;29398;45.328;5.558;2024-03-22T01:46:58;14.30;87.10
7738;DHT22;29398;45.328;5.558;2024-03-22T01:48:00;14.30;86.90
7738;DHT22;29398;45.328;5.558;2024-03-22T01:49:02;14.30;86.20
7738;DHT22;29398;45.328;5.558;2024-03-22T01:50:05;14.30;86.50
7738;DHT22;29398;45.328;5.558;2024-03-22T01:51:08;14.20;86.20
7738;DHT22;29398;45.328;5.558;2024-03-22T01:52:10;14.30;86.50
7738;DHT22;29398;45.328;5.558;2024-03-22T01:53:12;14.30;86.40
7738;DHT22;29398;45.328;5.558;2024-03-22T01:54:16;14.30;86.40
7738;DHT22;29398;45.328;5.558;2024-03-22T01:55:17;14.30;86.40
7738;DHT22;29398;45.328;5.558;2024-03-22T01:56:22;14.30;86.30
7738;DHT22;29398;45.328;5.558;2024-03-22T01:57:23;14.40;86.40
7738;DHT22;29398;45.328;5.558;2024-03-22T01:58:26;14.40;85.60
7738;DHT22;29398;45.328;5.558;2024-03-22T01:59:28;14.40;85.80
7738;DHT22;29398;45.328;5.558;2024-03-22T02:00:29;14.40;85.30
7738;DHT22;29398;45.328;5.558;2024-03-22T02:01:31;14.40;85.60
7738;DHT22;29398;45.328;5.558;2024-03-22T02:02:33;14.40;86.00
7738;DHT22;29398;45.328;5.558;2024-03-22T02:03:35;14.40;86.10
7738;DHT22;29398;45.328;5.558;2024-03-22T02:04:36;14.40;86.00
7738;DHT22;29398;45.328;5.558;2024-03-22T02:05:37;14.50;86.50
7738;DHT22;29398;45.328;5.558;2024-03-22T02:06:39;14.50;86.00
7738;DHT22;29398;45.328;5.558;2024-03-22T02:07:41;14.50;86.10
7738;DHT22;29398;45.328;5.558;2024-03-22T02:08:43;14.60;86.10
7738;DHT22;29398;45.328;5.558;2024-03-22T02:09:45;14.50;86.40
7738;DHT22;29398;45.328;5.558;2024-03-22T02:10:46;14.60;86.20
7738;DHT22;29398;45.328;5.558;2024-03-22T02:11:48;14.60;85.10
7738;DHT22;29398;45.328;5.558;2024-03-22T02:12:50;14.60;84.90
7738;DHT22;29398;45.328;5.558;2024-03-22T02:13:51;14.50;85.40
7738;DHT22;29398;45.328;5.558;2024-03-22T02:14:52;14.50;85.70
7738;DHT22;29398;45.328;5.558;2024-03-22T02:15:54;14.60;86.00
7738;DHT22;29398;45.328;5.558;2024-03-22T02:16:55;14.60;86.00
7738;DHT22;29398;45.328;5.558;2024-03-22T02:17:56;14.60;85.90
7738;DHT22;29398;45.328;5.558;2024-03-22T02:18:58;14.60;85.80
7738;DHT22;29398;45.328;5.558;2024-03-22T02:19:59;14.50;85.70
7738;DHT22;29398;45.328;5.558;2024-03-22T02:21:00;15.00;86.10
7738;DHT22;29398;45.328;5.558;2024-03-22T02:22:03;14.50;86.10
7738;DHT22;29398;45.328;5.558;2024-03-22T02:23:05;14.60;86.40
7738;DHT22;29398;45.328;5.558;2024-03-22T02:24:07;14.60;86.40
7738;DHT22;29398;45.328;5.558;2024-03-22T02:25:08;14.50;85.70
7738;DHT22;29398;45.328;5.558;2024-03-22T02:26:09;14.50;85.10
7738;DHT22;29398;45.328;5.558;2024-03-22T02:27:11;14.60;86.20
7738;DHT22;29398;45.328;5.558;2024-03-22T02:28:12;14.60;85.60
7738;DHT22;29398;45.328;5.558;2024-03-22T02:29:13;14.60;85.80
7738;DHT22;29398;45.328;5.558;2024-03-22T02:30:16;14.70;85.40
7738;DHT22;29398;45.328;5.558;2024-03-22T02:31:17;14.70;85.50
7738;DHT22;29398;45.328;5.558;2024-03-22T02:32:18;14.70;85.40
7738;DHT22;29398;45.328;5.558;2024-03-22T02:33:20;14.70;85.80
7738;DHT22;29398;45.328;5.558;2024-03-22T02:34:21;14.70;85.40
7738;DHT22;29398;45.328;5.558;2024-03-22T02:35:22;14.70;85.60
7738;DHT22;29398;45.328;5.558;2024-03-22T02:36:23;14.70;85.20
7738;DHT22;29398;45.328;5.558;2024-03-22T02:37:25;14.80;85.00
7738;DHT22;29398;45.328;5.558;2024-03-22T02:38:28;14.80;85.20
7738;DHT22;29398;45.328;5.558;2024-03-22T02:39:31;14.70;85.00
7738;DHT22;29398;45.328;5.558;2024-03-22T02:40:32;14.80;85.40
7738;DHT22;29398;45.328;5.558;2024-03-22T02:41:34;14.80;85.40
7738;DHT22;29398;45.328;5.558;2024-03-22T02:42:35;14.80;85.60
7738;DHT22;29398;45.328;5.558;2024-03-22T02:43:36;14.80;85.40
7738;DHT22;29398;45.328;5.558;2024-03-22T02:44:38;14.80;85.30
7738;DHT22;29398;45.328;5.558;2024-03-22T02:45:43;14.80;85.40
7738;DHT22;29398;45.328;5.558;2024-03-22T02:46:44;14.90;85.60
7738;DHT22;29398;45.328;5.558;2024-03-22T02:47:45;14.90;85.50
7738;DHT22;29398;45.328;5.558;2024-03-22T02:48:46;14.90;85.30
7738;DHT22;29398;45.328;5.558;2024-03-22T02:49:48;14.90;85.50
7738;DHT22;29398;45.328;5.558;2024-03-22T02:50:49;14.90;87.30
7738;DHT22;29398;45.328;5.558;2024-03-22T02:51:55;14.90;86.20
7738;DHT22;29398;45.328;5.558;2024-03-22T02:52:57;14.90;86.10
7738;DHT22;29398;45.328;5.558;2024-03-22T02:53:59;14.90;85.80
7738;DHT22;29398;45.328;5.558;2024-03-22T02:55:01;15.00;85.90
7738;DHT22;29398;45.328;5.558;2024-03-22T02:56:02;14.90;86.00
7738;DHT22;29398;45.328;5.558;2024-03-22T02:57:05;14.90;85.80
7738;DHT22;29398;45.328;5.558;2024-03-22T02:58:06;14.90;86.20
7738;DHT22;29398;45.328;5.558;2024-03-22T02:59:07;14.90;86.20
7738;DHT22;29398;45.328;5.558;2024-03-22T03:00:09;14.90;86.20
7738;DHT22;29398;45.328;5.558;2024-03-22T03:01:11;14.90;86.00
7738;DHT22;29398;45.328;5.558;2024-03-22T03:02:12;14.90;86.00
7738;DHT22;29398;45.328;5.558;2024-03-22T03:03:13;14.90;86.30
7738;DHT22;29398;45.328;5.558;2024-03-22T03:04:14;14.90;85.90
7738;DHT22;29398;45.328;5.558;2024-03-22T03:05:16;14.90;86.20
7738;DHT22;29398;45.328;5.558;2024-03-22T03:06:17;14.80;86.20
7738;DHT22;29398;45.328;5.558;2024-03-22T03:07:20;14.70;86.20
7738;DHT22;29398;45.328;5.558;2024-03-22T03:08:21;14.70;86.80
7738;DHT22;29398;45.328;5.558;2024-03-22T03:09:23;14.70;86.90
7738;DHT22;29398;45.328;5.558;2024-03-22T03:10:26;14.70;86.90
7738;DHT22;29398;45.328;5.558;2024-03-22T03:11:27;14.80;87.00
7738;DHT22;29398;45.328;5.558;2024-03-22T03:12:28;14.80;86.70
7738;DHT22;29398;45.328;5.558;2024-03-22T03:13:30;14.70;87.70
7738;DHT22;29398;45.328;5.558;2024-03-22T03:14:32;14.80;87.00
7738;DHT22;29398;45.328;5.558;2024-03-22T03:16:34;14.80;87.10
7738;DHT22;29398;45.328;5.558;2024-03-22T03:17:36;14.70;87.00
7738;DHT22;29398;45.328;5.558;2024-03-22T03:18:37;14.70;86.70
7738;DHT22;29398;45.328;5.558;2024-03-22T03:19:38;14.70;86.60
7738;DHT22;29398;45.328;5.558;2024-03-22T03:20:39;14.70;86.80
7738;DHT22;29398;45.328;5.558;2024-03-22T03:21:41;14.70;86.30
7738;DHT22;29398;45.328;5.558;2024-03-22T03:22:42;14.70;87.10
7738;DHT22;29398;45.328;5.558;2024-03-22T03:23:43;14.70;87.20
7738;DHT22;29398;45.328;5.558;2024-03-22T03:24:44;14.70;86.80
7738;DHT22;29398;45.328;5.558;2024-03-22T03:25:48;14.60;86.70
7738;DHT22;29398;45.328;5.558;2024-03-22T03:26:49;14.60;86.70
7738;DHT22;29398;45.328;5.558;2024-03-22T03:27:50;14.60;86.40
7738;DHT22;29398;45.328;5.558;2024-03-22T03:28:51;14.70;86.90
7738;DHT22;29398;45.328;5.558;2024-03-22T03:29:55;14.60;86.40
7738;DHT22;29398;45.328;5.558;2024-03-22T03:30:56;15.40;87.00
7738;DHT22;29398;45.328;5.558;2024-03-22T03:31:57;14.60;86.80
7738;DHT22;29398;45.328;5.558;2024-03-22T03:32:58;14.60;86.30
7738;DHT22;29398;45.328;5.558;2024-03-22T03:34:00;14.60;86.60
7738;DHT22;29398;45.328;5.558;2024-03-22T03:35:02;14.60;86.60
7738;DHT22;29398;45.328;5.558;2024-03-22T03:36:03;14.50;86.30
7738;DHT22;29398;45.328;5.558;2024-03-22T03:37:04;14.50;87.30
7738;DHT22;29398;45.328;5.558;2024-03-22T03:38:06;14.50;86.90
7738;DHT22;29398;45.328;5.558;2024-03-22T03:39:07;14.50;86.80
7738;DHT22;29398;45.328;5.558;2024-03-22T03:40:09;14.50;86.90
7738;DHT22;29398;45.328;5.558;2024-03-22T03:41:13;14.70;87.20
7738;DHT22;29398;45.328;5.558;2024-03-22T03:42:14;14.50;87.00
7738;DHT22;29398;45.328;5.558;2024-03-22T03:43:15;14.50;86.80
7738;DHT22;29398;45.328;5.558;2024-03-22T03:44:16;14.50;87.20
7738;DHT22;29398;45.328;5.558;2024-03-22T03:45:18;14.60;87.50
7738;DHT22;29398;45.328;5.558;2024-03-22T03:46:19;14.60;87.00
7738;DHT22;29398;45.328;5.558;2024-03-22T03:47:20;14.60;87.20
7738;DHT22;29398;45.328;5.558;2024-03-22T03:48:21;14.60;86.80
7738;DHT22;29398;45.328;5.558;2024-03-22T03:49:23;14.60;86.60
7738;DHT22;29398;45.328;5.558;2024-03-22T03:50:24;14.70;86.80
7738;DHT22;29398;45.328;5.558;2024-03-22T03:51:26;14.70;86.90
7738;DHT22;29398;45.328;5.558;2024-03-22T03:52:27;14.70;87.10
7738;DHT22;29398;45.328;5.558;2024-03-22T03:53:29;14.70;87.20
7738;DHT22;29398;45.328;5.558;2024-03-22T03:54:30;14.80;87.10
7738;DHT22;29398;45.328;5.558;2024-03-22T03:55:31;14.80;87.00
7738;DHT22;29398;45.328;5.558;2024-03-22T03:56:33;14.80;87.00
7738;DHT22;29398;45.328;5.558;2024-03-22T03:57:35;14.80;87.30
7738;DHT22;29398;45.328;5.558;2024-03-22T03:58:36;14.80;87.50
7738;DHT22;29398;45.328;5.558;2024-03-22T03:59:38;14.80;87.40
7738;DHT22;29398;45.328;5.558;2024-03-22T04:00:39;14.90;87.50
7738;DHT22;29398;45.328;5.558;2024-03-22T04:01:41;14.90;87.30
7738;DHT22;29398;45.328;5.558;2024-03-22T04:02:42;14.80;86.20
7738;DHT22;29398;45.328;5.558;2024-03-22T04:03:43;14.80;86.70
7738;DHT22;29398;45.328;5.558;2024-03-22T04:04:44;14.80;87.30
7738;DHT22;29398;45.328;5.558;2024-03-22T04:05:46;14.80;87.50
7738;DHT22;29398;45.328;5.558;2024-03-22T04:06:47;14.80;87.30
7738;DHT22;29398;45.328;5.558;2024-03-22T04:07:48;14.80;87.20
7738;DHT22;29398;45.328;5.558;2024-03-22T04:08:49;14.80;87.30
7738;DHT22;29398;45.328;5.558;2024-03-22T04:09:52;14.80;87.10
7738;DHT22;29398;45.328;5.558;2024-03-22T04:10:53;14.80;87.00
7738;DHT22;29398;45.328;5.558;2024-03-22T04:11:58;14.90;87.00
7738;DHT22;29398;45.328;5.558;2024-03-22T04:13:00;14.90;86.80
7738;DHT22;29398;45.328;5.558;2024-03-22T04:14:01;14.80;86.60
7738;DHT22;29398;45.328;5.558;2024-03-22T04:15:02;14.80;86.30
7738;DHT22;29398;45.328;5.558;2024-03-22T04:16:04;14.70;85.20
7738;DHT22;29398;45.328;5.558;2024-03-22T04:17:06;14.60;85.30
7738;DHT22;29398;45.328;5.558;2024-03-22T04:18:07;14.60;85.00
7738;DHT22;29398;45.328;5.558;2024-03-22T04:19:09;14.50;85.90
7738;DHT22;29398;45.328;5.558;2024-03-22T04:20:11;14.50;86.60
7738;DHT22;29398;45.328;5.558;2024-03-22T04:21:13;14.50;86.00
7738;DHT22;29398;45.328;5.558;2024-03-22T04:22:14;14.40;86.20
7738;DHT22;29398;45.328;5.558;2024-03-22T04:23:15;14.40;86.80
7738;DHT22;29398;45.328;5.558;2024-03-22T04:24:16;14.40;86.90
7738;DHT22;29398;45.328;5.558;2024-03-22T04:25:18;14.40;86.90
7738;DHT22;29398;45.328;5.558;2024-03-22T04:26:19;14.50;87.10
7738;DHT22;29398;45.328;5.558;2024-03-22T04:27:23;14.40;87.30
7738;DHT22;29398;45.328;5.558;2024-03-22T04:28:24;14.40;86.30
7738;DHT22;29398;45.328;5.558;2024-03-22T04:29:26;14.40;86.10
7738;DHT22;29398;45.328;5.558;2024-03-22T04:30:27;14.40;86.40
7738;DHT22;29398;45.328;5.558;2024-03-22T04:31:28;14.40;86.40
7738;DHT22;29398;45.328;5.558;2024-03-22T04:32:29;14.30;85.80
7738;DHT22;29398;45.328;5.558;2024-03-22T04:33:32;14.30;85.80
7738;DHT22;29398;45.328;5.558;2024-03-22T04:34:33;14.20;86.70
7738;DHT22;29398;45.328;5.558;2024-03-22T04:35:34;14.20;86.40
7738;DHT22;29398;45.328;5.558;2024-03-22T04:36:36;14.20;86.80
7738;DHT22;29398;45.328;5.558;2024-03-22T04:37:38;14.20;87.00
7738;DHT22;29398;45.328;5.558;2024-03-22T04:38:40;14.30;87.40
7738;DHT22;29398;45.328;5.558;2024-03-22T04:39:41;14.30;87.70
7738;DHT22;29398;45.328;5.558;2024-03-22T04:40:42;14.30;87.40
7738;DHT22;29398;45.328;5.558;2024-03-22T04:41:44;14.30;87.40
7738;DHT22;29398;45.328;5.558;2024-03-22T04:42:47;14.40;87.20
7738;DHT22;29398;45.328;5.558;2024-03-22T04:43:48;14.40;86.90
7738;DHT22;29398;45.328;5.558;2024-03-22T04:44:50;14.40;86.70
7738;DHT22;29398;45.328;5.558;2024-03-22T04:45:51;14.40;87.20
7738;DHT22;29398;45.328;5.558;2024-03-22T04:46:52;14.40;86.60
7738;DHT22;29398;45.328;5.558;2024-03-22T04:47:54;14.40;86.70
7738;DHT22;29398;45.328;5.558;2024-03-22T04:48:55;14.40;86.80
7738;DHT22;29398;45.328;5.558;2024-03-22T04:49:56;14.40;87.20
7738;DHT22;29398;45.328;5.558;2024-03-22T04:50:57;14.40;87.20
7738;DHT22;29398;45.328;5.558;2024-03-22T04:51:59;14.40;86.90
7738;DHT22;29398;45.328;5.558;2024-03-22T04:53:00;14.40;87.30
7738;DHT22;29398;45.328;5.558;2024-03-22T04:54:02;14.40;87.10
7738;DHT22;29398;45.328;5.558;2024-03-22T04:55:03;14.40;87.30
7738;DHT22;29398;45.328;5.558;2024-03-22T04:56:06;14.50;87.30
7738;DHT22;29398;45.328;5.558;2024-03-22T04:57:08;14.50;87.20
7738;DHT22;29398;45.328;5.558;2024-03-22T04:58:12;14.50;87.10
7738;DHT22;29398;45.328;5.558;2024-03-22T04:59:13;14.40;86.00
7738;DHT22;29398;45.328;5.558;2024-03-22T05:00:16;14.40;86.80
7738;DHT22;29398;45.328;5.558;2024-03-22T05:01:17;14.30;86.50
7738;DHT22;29398;45.328;5.558;2024-03-22T05:02:18;14.30;87.10
7738;DHT22;29398;45.328;5.558;2024-03-22T05:03:20;14.30;86.40
7738;DHT22;29398;45.328;5.558;2024-03-22T05:04:21;14.30;86.90
7738;DHT22;29398;45.328;5.558;2024-03-22T05:05:22;14.30;87.20
7738;DHT22;29398;45.328;5.558;2024-03-22T05:06:24;14.30;87.40
7738;DHT22;29398;45.328;5.558;2024-03-22T05:07:25;14.30;87.40
7738;DHT22;29398;45.328;5.558;2024-03-22T05:08:26;14.30;87.30
7738;DHT22;29398;45.328;5.558;2024-03-22T05:09:28;14.30;87.30
7738;DHT22;29398;45.328;5.558;2024-03-22T05:10:33;14.20;87.20
7738;DHT22;29398;45.328;5.558;2024-03-22T05:11:34;14.20;87.20
7738;DHT22;29398;45.328;5.558;2024-03-22T05:12:35;14.20;87.60
7738;DHT22;29398;45.328;5.558;2024-03-22T05:13:39;14.20;87.40
7738;DHT22;29398;45.328;5.558;2024-03-22T05:14:40;14.20;87.50
7738;DHT22;29398;45.328;5.558;2024-03-22T05:15:41;14.20;87.60
7738;DHT22;29398;45.328;5.558;2024-03-22T05:16:43;14.20;87.50
7738;DHT22;29398;45.328;5.558;2024-03-22T05:17:44;14.20;87.70
7738;DHT22;29398;45.328;5.558;2024-03-22T05:18:46;14.20;87.70
7738;DHT22;29398;45.328;5.558;2024-03-22T05:19:48;14.30;87.80
7738;DHT22;29398;45.328;5.558;2024-03-22T05:20:49;14.20;87.70
7738;DHT22;29398;45.328;5.558;2024-03-22T05:21:51;14.30;87.80
7738;DHT22;29398;45.328;5.558;2024-03-22T05:22:52;14.30;87.70
7738;DHT22;29398;45.328;5.558;2024-03-22T05:23:53;14.30;87.70
7738;DHT22;29398;45.328;5.558;2024-03-22T05:24:54;14.30;87.80
7738;DHT22;29398;45.328;5.558;2024-03-22T05:25:56;14.30;87.60
7738;DHT22;29398;45.328;5.558;2024-03-22T05:26:58;14.30;87.60
7738;DHT22;29398;45.328;5.558;2024-03-22T05:27:59;14.30;87.60
7738;DHT22;29398;45.328;5.558;2024-03-22T05:29:02;14.30;87.60
7738;DHT22;29398;45.328;5.558;2024-03-22T05:30:06;14.30;87.60
7738;DHT22;29398;45.328;5.558;2024-03-22T05:31:07;14.30;87.00
7738;DHT22;29398;45.328;5.558;2024-03-22T05:32:08;14.20;87.40
7738;DHT22;29398;45.328;5.558;2024-03-22T05:33:10;14.20;87.60
7738;DHT22;29398;45.328;5.558;2024-03-22T05:34:11;14.20;88.20
7738;DHT22;29398;45.328;5.558;2024-03-22T05:35:12;14.10;86.80
7738;DHT22;29398;45.328;5.558;2024-03-22T05:36:13;14.20;87.30
7738;DHT22;29398;45.328;5.558;2024-03-22T05:37:15;14.10;87.90
7738;DHT22;29398;45.328;5.558;2024-03-22T05:38:16;14.10;88.00
7738;DHT22;29398;45.328;5.558;2024-03-22T05:39:17;14.10;88.00
7738;DHT22;29398;45.328;5.558;2024-03-22T05:40:19;15.50;88.90
7738;DHT22;29398;45.328;5.558;2024-03-22T05:41:21;14.10;88.10
7738;DHT22;29398;45.328;5.558;2024-03-22T05:42:22;14.10;88.10
7738;DHT22;29398;45.328;5.558;2024-03-22T05:43:23;14.10;88.00
7738;DHT22;29398;45.328;5.558;2024-03-22T05:44:25;14.20;88.30
7738;DHT22;29398;45.328;5.558;2024-03-22T05:45:27;14.10;87.80
7738;DHT22;29398;45.328;5.558;2024-03-22T05:46:29;14.10;87.50
7738;DHT22;29398;45.328;5.558;2024-03-22T05:47:30;14.00;87.60
7738;DHT22;29398;45.328;5.558;2024-03-22T05:48:32;13.90;88.00
7738;DHT22;29398;45.328;5.558;2024-03-22T05:49:34;13.90;88.80
7738;DHT22;29398;45.328;5.558;2024-03-22T05:50:35;13.70;88.40
7738;DHT22;29398;45.328;5.558;2024-03-22T05:51:36;13.80;88.50
7738;DHT22;29398;45.328;5.558;2024-03-22T05:52:37;13.80;88.80
7738;DHT22;29398;45.328;5.558;2024-03-22T05:53:39;13.90;89.00
7738;DHT22;29398;45.328;5.558;2024-03-22T05:54:40;13.90;88.60
7738;DHT22;29398;45.328;5.558;2024-03-22T05:55:42;13.90;88.90
7738;DHT22;29398;45.328;5.558;2024-03-22T05:56:43;13.80;88.70
7738;DHT22;29398;45.328;5.558;2024-03-22T05:57:45;13.80;89.10
7738;DHT22;29398;45.328;5.558;2024-03-22T05:58:46;13.90;89.10
7738;DHT22;29398;45.328;5.558;2024-03-22T05:59:48;13.90;88.90
7738;DHT22;29398;45.328;5.558;2024-03-22T06:00:49;13.80;88.40
7738;DHT22;29398;45.328;5.558;2024-03-22T06:01:54;12.90;87.90
7738;DHT22;29398;45.328;5.558;2024-03-22T06:02:55;13.80;88.90
7738;DHT22;29398;45.328;5.558;2024-03-22T06:03:56;13.80;89.30
7738;DHT22;29398;45.328;5.558;2024-03-22T06:04:57;13.80;89.50
7738;DHT22;29398;45.328;5.558;2024-03-22T06:05:59;13.80;89.70
7738;DHT22;29398;45.328;5.558;2024-03-22T06:07:01;13.80;89.70
7738;DHT22;29398;45.328;5.558;2024-03-22T06:08:05;13.90;90.10
7738;DHT22;29398;45.328;5.558;2024-03-22T06:09:06;13.90;88.80
7738;DHT22;29398;45.328;5.558;2024-03-22T06:10:14;13.90;89.20
7738;DHT22;29398;45.328;5.558;2024-03-22T06:11:15;13.90;89.20
7738;DHT22;29398;45.328;5.558;2024-03-22T06:12:16;13.90;90.00
7738;DHT22;29398;45.328;5.558;2024-03-22T06:13:18;13.90;88.30
7738;DHT22;29398;45.328;5.558;2024-03-22T06:14:19;14.00;89.00
7738;DHT22;29398;45.328;5.558;2024-03-22T06:15:22;14.00;89.30
7738;DHT22;29398;45.328;5.558;2024-03-22T06:16:23;14.00;88.60
7738;DHT22;29398;45.328;5.558;2024-03-22T06:17:25;14.00;88.20
7738;DHT22;29398;45.328;5.558;2024-03-22T06:18:26;14.00;88.20
7738;DHT22;29398;45.328;5.558;2024-03-22T06:19:27;14.00;88.30
7738;DHT22;29398;45.328;5.558;2024-03-22T06:20:29;14.00;88.30
7738;DHT22;29398;45.328;5.558;2024-03-22T06:21:31;14.00;88.80
7738;DHT22;29398;45.328;5.558;2024-03-22T06:22:32;14.00;88.50
7738;DHT22;29398;45.328;5.558;2024-03-22T06:23:33;14.00;89.10
7738;DHT22;29398;45.328;5.558;2024-03-22T06:24:34;14.00;89.20
7738;DHT22;29398;45.328;5.558;2024-03-22T06:25:36;14.10;88.60
7738;DHT22;29398;45.328;5.558;2024-03-22T06:26:38;14.10;88.20
7738;DHT22;29398;45.328;5.558;2024-03-22T06:27:39;14.10;89.00
7738;DHT22;29398;45.328;5.558;2024-03-22T06:28:41;14.10;89.30
7738;DHT22;29398;45.328;5.558;2024-03-22T06:29:43;12.90;88.40
7738;DHT22;29398;45.328;5.558;2024-03-22T06:30:45;14.20;88.70
7738;DHT22;29398;45.328;5.558;2024-03-22T06:31:47;14.10;88.90
7738;DHT22;29398;45.328;5.558;2024-03-22T06:32:48;14.20;89.10
7738;DHT22;29398;45.328;5.558;2024-03-22T06:33:50;14.20;89.50
7738;DHT22;29398;45.328;5.558;2024-03-22T06:34:51;14.30;89.80
7738;DHT22;29398;45.328;5.558;2024-03-22T06:35:52;14.30;89.70
7738;DHT22;29398;45.328;5.558;2024-03-22T06:36:53;14.30;89.60